sensor_id;sensor_type;location;lat;lon;timestamp;temperature;humidity
15656;DHT22;7928;43.614;1.456;2023-03-08T00:02:16;7.30;99.90
15656;DHT22;7928;43.614;1.456;2023-03-08T00:04:43;7.40;99.90
15656;DHT22;7928;43.614;1.456;2023-03-08T00:07:11;7.30;99.90
15656;DHT22;7928;43.614;1.456;2023-03-08T00:09:39;7.30;99.90
15656;DHT22;7928;43.614;1.456;2023-03-08T00:12:06;7.30;99.90
15656;DHT22;7928;43.614;1.456;2023-03-08T00:14:35;7.30;99.90
15656;DHT22;7928;43.614;1.456;2023-03-08T00:17:02;7.30;99.90
15656;DHT22;7928;43.614;1.456;2023-03-08T00:19:29;7.20;99.90
15656;DHT22;7928;43.614;1.456;2023-03-08T00:21:56;7.30;99.90
15656;DHT22;7928;43.614;1.456;2023-03-08T00:24:25;7.20;99.90
15656;DHT22;7928;43.614;1.456;2023-03-08T00:26:52;7.20;99.90
15656;DHT22;7928;43.614;1.456;2023-03-08T00:29:19;7.20;99.90
15656;DHT22;7928;43.614;1.456;2023-03-08T00:31:46;7.20;99.90
15656;DHT22;7928;43.614;1.456;2023-03-08T00:34:13;7.20;99.90
15656;DHT22;7928;43.614;1.456;2023-03-08T00:36:40;7.20;99.90
15656;DHT22;7928;43.614;1.456;2023-03-08T00:39:07;7.20;99.90
15656;DHT22;7928;43.614;1.456;2023-03-08T00:41:35;7.20;99.90
15656;DHT22;7928;43.614;1.456;2023-03-08T00:44:03;7.20;99.90
15656;DHT22;7928;43.614;1.456;2023-03-08T00:46:30;7.20;99.90
15656;DHT22;7928;43.614;1.456;2023-03-08T00:48:57;7.20;99.90
15656;DHT22;7928;43.614;1.456;2023-03-08T00:51:24;7.10;99.90
15656;DHT22;7928;43.614;1.456;2023-03-08T00:54:01;7.10;99.90
15656;DHT22;7928;43.614;1.456;2023-03-08T00:56:28;7.10;99.90
15656;DHT22;7928;43.614;1.456;2023-03-08T00:58:56;7.00;99.90
15656;DHT22;7928;43.614;1.456;2023-03-08T01:01:23;6.90;99.90
15656;DHT22;7928;43.614;1.456;2023-03-08T01:03:50;6.90;99.90
15656;DHT22;7928;43.614;1.456;2023-03-08T01:06:17;6.90;99.90
15656;DHT22;7928;43.614;1.456;2023-03-08T01:08:45;6.90;99.90
15656;DHT22;7928;43.614;1.456;2023-03-08T01:11:18;7.00;99.90
15656;DHT22;7928;43.614;1.456;2023-03-08T01:13:46;7.00;99.90
15656;DHT22;7928;43.614;1.456;2023-03-08T01:16:16;7.00;99.90
15656;DHT22;7928;43.614;1.456;2023-03-08T01:18:44;7.00;99.90
15656;DHT22;7928;43.614;1.456;2023-03-08T01:21:11;7.10;99.90
15656;DHT22;7928;43.614;1.456;2023-03-08T01:23:38;7.10;99.90
15656;DHT22;7928;43.614;1.456;2023-03-08T01:26:07;7.10;99.90
15656;DHT22;7928;43.614;1.456;2023-03-08T01:28:34;7.10;99.90
15656;DHT22;7928;43.614;1.456;2023-03-08T01:31:03;7.00;99.90
15656;DHT22;7928;43.614;1.456;2023-03-08T01:33:32;7.10;99.90
15656;DHT22;7928;43.614;1.456;2023-03-08T01:36:01;7.10;99.90
15656;DHT22;7928;43.614;1.456;2023-03-08T01:38:28;7.10;99.90
15656;DHT22;7928;43.614;1.456;2023-03-08T01:40:55;7.10;99.90
15656;DHT22;7928;43.614;1.456;2023-03-08T01:43:24;7.20;99.90
15656;DHT22;7928;43.614;1.456;2023-03-08T01:46:13;7.20;99.90
15656;DHT22;7928;43.614;1.456;2023-03-08T01:48:46;7.10;99.90
15656;DHT22;7928;43.614;1.456;2023-03-08T01:51:17;7.10;99.90
15656;DHT22;7928;43.614;1.456;2023-03-08T01:53:47;7.10;99.90
15656;DHT22;7928;43.614;1.456;2023-03-08T01:56:15;7.00;99.90
15656;DHT22;7928;43.614;1.456;2023-03-08T01:58:44;7.00;99.90
15656;DHT22;7928;43.614;1.456;2023-03-08T02:01:13;6.90;99.90
15656;DHT22;7928;43.614;1.456;2023-03-08T02:03:40;6.80;99.90
15656;DHT22;7928;43.614;1.456;2023-03-08T02:06:08;6.80;99.90
15656;DHT22;7928;43.614;1.456;2023-03-08T02:08:36;6.80;99.90
15656;DHT22;7928;43.614;1.456;2023-03-08T02:11:03;6.90;99.90
15656;DHT22;7928;43.614;1.456;2023-03-08T02:13:30;6.90;99.90
15656;DHT22;7928;43.614;1.456;2023-03-08T02:16:15;6.90;99.90
15656;DHT22;7928;43.614;1.456;2023-03-08T02:18:53;7.00;99.90
15656;DHT22;7928;43.614;1.456;2023-03-08T02:21:23;7.00;99.90
15656;DHT22;7928;43.614;1.456;2023-03-08T02:23:51;7.00;99.90
15656;DHT22;7928;43.614;1.456;2023-03-08T02:26:19;7.10;99.90
15656;DHT22;7928;43.614;1.456;2023-03-08T02:28:46;7.10;99.90
15656;DHT22;7928;43.614;1.456;2023-03-08T02:31:14;7.10;99.90
15656;DHT22;7928;43.614;1.456;2023-03-08T02:33:41;7.10;99.90
15656;DHT22;7928;43.614;1.456;2023-03-08T02:36:08;7.10;99.90
15656;DHT22;7928;43.614;1.456;2023-03-08T02:38:36;7.10;99.90
15656;DHT22;7928;43.614;1.456;2023-03-08T02:41:04;7.10;99.90
15656;DHT22;7928;43.614;1.456;2023-03-08T02:43:32;7.10;99.90
15656;DHT22;7928;43.614;1.456;2023-03-08T02:45:59;7.20;99.90
15656;DHT22;7928;43.614;1.456;2023-03-08T02:48:26;7.20;99.90
15656;DHT22;7928;43.614;1.456;2023-03-08T02:50:53;7.20;99.90
15656;DHT22;7928;43.614;1.456;2023-03-08T02:53:20;7.20;99.90
15656;DHT22;7928;43.614;1.456;2023-03-08T02:55:57;7.20;99.90
15656;DHT22;7928;43.614;1.456;2023-03-08T02:58:25;7.20;99.90
15656;DHT22;7928;43.614;1.456;2023-03-08T03:00:52;7.20;99.90
15656;DHT22;7928;43.614;1.456;2023-03-08T03:03:19;7.30;99.90
15656;DHT22;7928;43.614;1.456;2023-03-08T03:05:56;7.30;99.90
15656;DHT22;7928;43.614;1.456;2023-03-08T03:08:23;7.30;99.90
15656;DHT22;7928;43.614;1.456;2023-03-08T03:10:50;7.30;99.90
15656;DHT22;7928;43.614;1.456;2023-03-08T03:13:17;7.30;99.90
15656;DHT22;7928;43.614;1.456;2023-03-08T03:15:46;7.30;99.90
15656;DHT22;7928;43.614;1.456;2023-03-08T03:18:13;7.30;99.90
15656;DHT22;7928;43.614;1.456;2023-03-08T03:20:40;7.30;99.90
15656;DHT22;7928;43.614;1.456;2023-03-08T03:23:07;7.40;99.90
15656;DHT22;7928;43.614;1.456;2023-03-08T03:25:36;7.30;99.90
15656;DHT22;7928;43.614;1.456;2023-03-08T03:28:03;7.30;99.90
15656;DHT22;7928;43.614;1.456;2023-03-08T03:30:30;7.40;99.90
15656;DHT22;7928;43.614;1.456;2023-03-08T03:32:58;7.40;99.90
15656;DHT22;7928;43.614;1.456;2023-03-08T03:35:25;7.40;99.90
15656;DHT22;7928;43.614;1.456;2023-03-08T03:37:52;7.40;99.90
15656;DHT22;7928;43.614;1.456;2023-03-08T03:40:19;7.40;99.90
15656;DHT22;7928;43.614;1.456;2023-03-08T03:42:47;7.50;99.90
15656;DHT22;7928;43.614;1.456;2023-03-08T03:45:14;7.50;99.90
15656;DHT22;7928;43.614;1.456;2023-03-08T03:47:41;7.50;99.90
15656;DHT22;7928;43.614;1.456;2023-03-08T03:50:10;7.50;99.90
15656;DHT22;7928;43.614;1.456;2023-03-08T03:52:37;7.50;99.90
15656;DHT22;7928;43.614;1.456;2023-03-08T03:55:06;7.50;99.90
15656;DHT22;7928;43.614;1.456;2023-03-08T03:57:33;7.60;99.90
15656;DHT22;7928;43.614;1.456;2023-03-08T04:00:00;7.60;99.90
15656;DHT22;7928;43.614;1.456;2023-03-08T04:02:27;7.60;99.90
15656;DHT22;7928;43.614;1.456;2023-03-08T04:04:54;7.60;99.90
15656;DHT22;7928;43.614;1.456;2023-03-08T04:07:22;7.60;99.90
15656;DHT22;7928;43.614;1.456;2023-03-08T04:09:49;7.60;99.90
15656;DHT22;7928;43.614;1.456;2023-03-08T04:12:16;7.60;99.90
15656;DHT22;7928;43.614;1.456;2023-03-08T04:14:43;7.60;99.90
15656;DHT22;7928;43.614;1.456;2023-03-08T04:17:10;7.60;99.90
15656;DHT22;7928;43.614;1.456;2023-03-08T04:19:37;7.60;99.90
15656;DHT22;7928;43.614;1.456;2023-03-08T04:22:04;7.70;99.90
15656;DHT22;7928;43.614;1.456;2023-03-08T04:24:33;7.70;99.90
15656;DHT22;7928;43.614;1.456;2023-03-08T04:27:00;7.70;99.90
15656;DHT22;7928;43.614;1.456;2023-03-08T04:29:26;7.70;99.90
15656;DHT22;7928;43.614;1.456;2023-03-08T04:31:53;7.70;99.90
15656;DHT22;7928;43.614;1.456;2023-03-08T04:34:24;7.70;99.90
15656;DHT22;7928;43.614;1.456;2023-03-08T04:36:51;7.70;99.90
15656;DHT22;7928;43.614;1.456;2023-03-08T04:39:18;7.80;99.90
15656;DHT22;7928;43.614;1.456;2023-03-08T04:41:46;7.80;99.90
15656;DHT22;7928;43.614;1.456;2023-03-08T04:44:13;7.80;99.90
15656;DHT22;7928;43.614;1.456;2023-03-08T04:46:40;7.70;99.90
15656;DHT22;7928;43.614;1.456;2023-03-08T04:49:07;7.80;99.90
15656;DHT22;7928;43.614;1.456;2023-03-08T04:51:34;7.80;99.90
15656;DHT22;7928;43.614;1.456;2023-03-08T04:54:01;7.90;99.90
15656;DHT22;7928;43.614;1.456;2023-03-08T04:56:29;7.90;99.90
15656;DHT22;7928;43.614;1.456;2023-03-08T04:58:57;7.90;99.90
15656;DHT22;7928;43.614;1.456;2023-03-08T05:01:24;7.90;99.90
15656;DHT22;7928;43.614;1.456;2023-03-08T05:03:52;7.90;99.90
15656;DHT22;7928;43.614;1.456;2023-03-08T05:06:21;7.90;99.90
15656;DHT22;7928;43.614;1.456;2023-03-08T05:08:48;7.90;99.90
15656;DHT22;7928;43.614;1.456;2023-03-08T05:11:18;7.90;99.90
15656;DHT22;7928;43.614;1.456;2023-03-08T05:13:46;7.90;99.90
15656;DHT22;7928;43.614;1.456;2023-03-08T05:16:14;7.90;99.90
15656;DHT22;7928;43.614;1.456;2023-03-08T05:18:41;7.90;99.90
15656;DHT22;7928;43.614;1.456;2023-03-08T05:21:10;7.80;99.90
15656;DHT22;7928;43.614;1.456;2023-03-08T05:23:38;7.80;99.90
15656;DHT22;7928;43.614;1.456;2023-03-08T05:26:06;7.80;99.90
15656;DHT22;7928;43.614;1.456;2023-03-08T05:28:34;7.80;99.90
15656;DHT22;7928;43.614;1.456;2023-03-08T05:31:04;7.90;99.90
15656;DHT22;7928;43.614;1.456;2023-03-08T05:33:33;7.80;99.90
15656;DHT22;7928;43.614;1.456;2023-03-08T05:36:00;7.80;99.90
15656;DHT22;7928;43.614;1.456;2023-03-08T05:38:28;7.90;99.90
15656;DHT22;7928;43.614;1.456;2023-03-08T05:40:59;7.90;99.90
15656;DHT22;7928;43.614;1.456;2023-03-08T05:43:37;7.90;99.90
15656;DHT22;7928;43.614;1.456;2023-03-08T05:46:06;7.90;99.90
15656;DHT22;7928;43.614;1.456;2023-03-08T05:48:34;7.90;99.90
15656;DHT22;7928;43.614;1.456;2023-03-08T05:51:04;7.90;99.90
15656;DHT22;7928;43.614;1.456;2023-03-08T05:53:31;8.00;99.90
15656;DHT22;7928;43.614;1.456;2023-03-08T05:56:06;8.00;99.90
15656;DHT22;7928;43.614;1.456;2023-03-08T05:58:34;8.00;99.90
15656;DHT22;7928;43.614;1.456;2023-03-08T06:01:08;8.00;99.90
15656;DHT22;7928;43.614;1.456;2023-03-08T06:03:36;8.00;99.90
15656;DHT22;7928;43.614;1.456;2023-03-08T06:06:04;8.00;99.90
15656;DHT22;7928;43.614;1.456;2023-03-08T06:08:31;8.00;99.90
15656;DHT22;7928;43.614;1.456;2023-03-08T06:10:58;8.00;99.90
15656;DHT22;7928;43.614;1.456;2023-03-08T06:13:25;8.00;99.90
15656;DHT22;7928;43.614;1.456;2023-03-08T06:15:53;8.00;99.90
15656;DHT22;7928;43.614;1.456;2023-03-08T06:18:21;8.00;99.90
15656;DHT22;7928;43.614;1.456;2023-03-08T06:20:58;8.00;99.90
15656;DHT22;7928;43.614;1.456;2023-03-08T06:23:25;8.00;99.90
15656;DHT22;7928;43.614;1.456;2023-03-08T06:25:52;8.00;99.90
15656;DHT22;7928;43.614;1.456;2023-03-08T06:28:19;8.10;99.90
15656;DHT22;7928;43.614;1.456;2023-03-08T06:30:46;8.10;99.90
15656;DHT22;7928;43.614;1.456;2023-03-08T06:33:15;8.10;99.90
15656;DHT22;7928;43.614;1.456;2023-03-08T06:35:42;8.10;99.90
15656;DHT22;7928;43.614;1.456;2023-03-08T06:38:10;8.10;99.90
15656;DHT22;7928;43.614;1.456;2023-03-08T06:40:37;8.10;99.90
15656;DHT22;7928;43.614;1.456;2023-03-08T06:43:04;8.20;99.90
15656;DHT22;7928;43.614;1.456;2023-03-08T06:45:31;8.20;99.90
15656;DHT22;7928;43.614;1.456;2023-03-08T06:47:59;8.20;99.90
15656;DHT22;7928;43.614;1.456;2023-03-08T06:50:26;8.30;99.90
15656;DHT22;7928;43.614;1.456;2023-03-08T06:52:54;8.30;99.90
15656;DHT22;7928;43.614;1.456;2023-03-08T06:55:22;8.30;99.90
15656;DHT22;7928;43.614;1.456;2023-03-08T06:57:49;8.40;99.90
15656;DHT22;7928;43.614;1.456;2023-03-08T07:00:17;8.50;99.90
15656;DHT22;7928;43.614;1.456;2023-03-08T07:02:44;8.50;99.90
15656;DHT22;7928;43.614;1.456;2023-03-08T07:05:13;8.60;99.90
15656;DHT22;7928;43.614;1.456;2023-03-08T07:07:40;8.60;99.90
15656;DHT22;7928;43.614;1.456;2023-03-08T07:10:08;8.70;99.90
15656;DHT22;7928;43.614;1.456;2023-03-08T07:12:37;8.70;99.90
15656;DHT22;7928;43.614;1.456;2023-03-08T07:15:08;8.80;99.90
15656;DHT22;7928;43.614;1.456;2023-03-08T07:17:39;8.90;99.90
15656;DHT22;7928;43.614;1.456;2023-03-08T07:20:07;8.90;99.90
15656;DHT22;7928;43.614;1.456;2023-03-08T07:22:35;9.00;99.90
15656;DHT22;7928;43.614;1.456;2023-03-08T07:25:02;9.00;99.90
15656;DHT22;7928;43.614;1.456;2023-03-08T07:27:29;9.10;99.90
15656;DHT22;7928;43.614;1.456;2023-03-08T07:29:57;9.30;99.90
15656;DHT22;7928;43.614;1.456;2023-03-08T07:32:24;9.40;99.90
15656;DHT22;7928;43.614;1.456;2023-03-08T07:34:53;9.50;99.90
15656;DHT22;7928;43.614;1.456;2023-03-08T07:37:20;9.50;99.90
15656;DHT22;7928;43.614;1.456;2023-03-08T07:39:47;9.50;99.90
15656;DHT22;7928;43.614;1.456;2023-03-08T07:42:14;9.50;99.90
15656;DHT22;7928;43.614;1.456;2023-03-08T07:44:41;9.60;99.90
15656;DHT22;7928;43.614;1.456;2023-03-08T07:47:09;9.60;99.90
15656;DHT22;7928;43.614;1.456;2023-03-08T07:49:36;9.60;99.90
15656;DHT22;7928;43.614;1.456;2023-03-08T07:52:04;9.70;99.90
15656;DHT22;7928;43.614;1.456;2023-03-08T07:54:31;9.70;99.90
15656;DHT22;7928;43.614;1.456;2023-03-08T07:56:58;9.70;99.90
15656;DHT22;7928;43.614;1.456;2023-03-08T07:59:25;9.70;99.90
15656;DHT22;7928;43.614;1.456;2023-03-08T08:01:52;9.70;99.90
15656;DHT22;7928;43.614;1.456;2023-03-08T08:04:20;9.80;99.90
15656;DHT22;7928;43.614;1.456;2023-03-08T08:06:47;9.80;99.90
15656;DHT22;7928;43.614;1.456;2023-03-08T08:09:14;9.90;99.90
15656;DHT22;7928;43.614;1.456;2023-03-08T08:11:42;10.10;99.90
15656;DHT22;7928;43.614;1.456;2023-03-08T08:14:09;10.20;99.90
15656;DHT22;7928;43.614;1.456;2023-03-08T08:16:36;10.20;99.90
15656;DHT22;7928;43.614;1.456;2023-03-08T08:19:03;10.30;99.90
15656;DHT22;7928;43.614;1.456;2023-03-08T08:21:32;10.40;99.90
15656;DHT22;7928;43.614;1.456;2023-03-08T08:23:59;10.50;99.90
15656;DHT22;7928;43.614;1.456;2023-03-08T08:26:26;10.60;99.90
15656;DHT22;7928;43.614;1.456;2023-03-08T08:29:02;10.70;99.90
15656;DHT22;7928;43.614;1.456;2023-03-08T08:31:30;10.90;99.90
15656;DHT22;7928;43.614;1.456;2023-03-08T08:33:57;11.00;99.90
15656;DHT22;7928;43.614;1.456;2023-03-08T08:36:24;11.10;99.90
15656;DHT22;7928;43.614;1.456;2023-03-08T08:38:53;11.10;99.90
15656;DHT22;7928;43.614;1.456;2023-03-08T08:41:21;11.10;99.90
15656;DHT22;7928;43.614;1.456;2023-03-08T08:43:48;11.00;99.90
15656;DHT22;7928;43.614;1.456;2023-03-08T08:46:16;10.90;99.90
15656;DHT22;7928;43.614;1.456;2023-03-08T08:48:43;11.30;99.90
15656;DHT22;7928;43.614;1.456;2023-03-08T08:51:12;11.00;99.90
15656;DHT22;7928;43.614;1.456;2023-03-08T08:53:39;11.00;99.90
15656;DHT22;7928;43.614;1.456;2023-03-08T08:56:12;11.10;99.90
15656;DHT22;7928;43.614;1.456;2023-03-08T08:58:39;11.30;99.90
15656;DHT22;7928;43.614;1.456;2023-03-08T09:01:13;11.50;99.90
15656;DHT22;7928;43.614;1.456;2023-03-08T09:03:40;11.70;99.90
15656;DHT22;7928;43.614;1.456;2023-03-08T09:06:07;11.90;99.90
15656;DHT22;7928;43.614;1.456;2023-03-08T09:08:34;12.10;99.90
15656;DHT22;7928;43.614;1.456;2023-03-08T09:11:02;12.20;99.90
15656;DHT22;7928;43.614;1.456;2023-03-08T09:13:31;12.30;99.90
15656;DHT22;7928;43.614;1.456;2023-03-08T09:15:58;12.50;99.90
15656;DHT22;7928;43.614;1.456;2023-03-08T09:18:25;12.70;99.90
15656;DHT22;7928;43.614;1.456;2023-03-08T09:20:53;12.80;99.90
15656;DHT22;7928;43.614;1.456;2023-03-08T09:23:20;13.00;99.90
15656;DHT22;7928;43.614;1.456;2023-03-08T09:25:54;13.20;99.90
15656;DHT22;7928;43.614;1.456;2023-03-08T09:28:22;13.50;99.90
15656;DHT22;7928;43.614;1.456;2023-03-08T09:30:50;13.70;99.90
15656;DHT22;7928;43.614;1.456;2023-03-08T09:33:18;13.80;99.90
15656;DHT22;7928;43.614;1.456;2023-03-08T09:35:54;14.10;99.90
15656;DHT22;7928;43.614;1.456;2023-03-08T09:38:22;14.20;99.90
15656;DHT22;7928;43.614;1.456;2023-03-08T09:40:57;14.20;67.20
15656;DHT22;7928;43.614;1.456;2023-03-08T09:43:34;14.20;52.80
15656;DHT22;7928;43.614;1.456;2023-03-08T09:46:04;14.40;45.30
15656;DHT22;7928;43.614;1.456;2023-03-08T09:48:32;14.60;33.70
15656;DHT22;7928;43.614;1.456;2023-03-08T09:51:02;14.70;36.60
15656;DHT22;7928;43.614;1.456;2023-03-08T09:53:37;14.90;25.20
15656;DHT22;7928;43.614;1.456;2023-03-08T09:56:11;15.20;13.00
15656;DHT22;7928;43.614;1.456;2023-03-08T09:58:42;15.30;4.20
15656;DHT22;7928;43.614;1.456;2023-03-08T10:01:20;15.40;6.10
15656;DHT22;7928;43.614;1.456;2023-03-08T10:06:49;15.30;4.70
15656;DHT22;7928;43.614;1.456;2023-03-08T10:09:25;15.40;1.00
15656;DHT22;7928;43.614;1.456;2023-03-08T10:11:59;15.60;9.10
15656;DHT22;7928;43.614;1.456;2023-03-08T10:14:30;15.90;1.00
15656;DHT22;7928;43.614;1.456;2023-03-08T10:17:03;16.20;1.00
15656;DHT22;7928;43.614;1.456;2023-03-08T10:19:36;16.60;1.00
15656;DHT22;7928;43.614;1.456;2023-03-08T10:22:08;16.70;1.00
15656;DHT22;7928;43.614;1.456;2023-03-08T10:24:44;17.10;1.00
15656;DHT22;7928;43.614;1.456;2023-03-08T10:27:17;17.70;1.00
15656;DHT22;7928;43.614;1.456;2023-03-08T10:29:49;18.00;1.00
15656;DHT22;7928;43.614;1.456;2023-03-08T10:32:18;18.90;1.00
15656;DHT22;7928;43.614;1.456;2023-03-08T10:34:46;19.80;1.00
15656;DHT22;7928;43.614;1.456;2023-03-08T10:37:13;19.70;1.00
15656;DHT22;7928;43.614;1.456;2023-03-08T10:39:48;19.70;1.00
15656;DHT22;7928;43.614;1.456;2023-03-08T10:42:19;19.50;1.00
15656;DHT22;7928;43.614;1.456;2023-03-08T10:44:53;19.20;1.00
15656;DHT22;7928;43.614;1.456;2023-03-08T10:47:24;18.70;1.00
15656;DHT22;7928;43.614;1.456;2023-03-08T10:50:13;18.80;1.00
15656;DHT22;7928;43.614;1.456;2023-03-08T10:52:41;20.00;1.00
15656;DHT22;7928;43.614;1.456;2023-03-08T10:55:12;20.40;1.00
15656;DHT22;7928;43.614;1.456;2023-03-08T10:57:39;21.90;1.00
15656;DHT22;7928;43.614;1.456;2023-03-08T11:00:23;22.00;99.90
15656;DHT22;7928;43.614;1.456;2023-03-08T11:03:10;22.00;99.90
15656;DHT22;7928;43.614;1.456;2023-03-08T11:05:38;21.40;1.00
15656;DHT22;7928;43.614;1.456;2023-03-08T11:08:18;20.60;1.00
15656;DHT22;7928;43.614;1.456;2023-03-08T11:10:45;20.90;1.00
15656;DHT22;7928;43.614;1.456;2023-03-08T11:13:20;22.30;99.90
15656;DHT22;7928;43.614;1.456;2023-03-08T11:15:53;23.60;18.90
15656;DHT22;7928;43.614;1.456;2023-03-08T11:18:30;24.80;1.00
15656;DHT22;7928;43.614;1.456;2023-03-08T11:21:05;25.60;1.00
15656;DHT22;7928;43.614;1.456;2023-03-08T11:23:38;25.40;99.90
15656;DHT22;7928;43.614;1.456;2023-03-08T11:26:15;25.90;99.90
15656;DHT22;7928;43.614;1.456;2023-03-08T11:28:58;25.40;1.00
15656;DHT22;7928;43.614;1.456;2023-03-08T11:31:33;23.90;1.00
15656;DHT22;7928;43.614;1.456;2023-03-08T11:36:54;24.60;99.90
15656;DHT22;7928;43.614;1.456;2023-03-08T11:39:28;26.10;1.00
15656;DHT22;7928;43.614;1.456;2023-03-08T11:42:01;25.70;1.00
15656;DHT22;7928;43.614;1.456;2023-03-08T11:44:40;25.60;99.90
15656;DHT22;7928;43.614;1.456;2023-03-08T11:50:17;27.30;45.70
15656;DHT22;7928;43.614;1.456;2023-03-08T11:52:52;28.20;1.00
15656;DHT22;7928;43.614;1.456;2023-03-08T11:55:38;27.60;1.00
15656;DHT22;7928;43.614;1.456;2023-03-08T11:58:12;27.50;1.00
15656;DHT22;7928;43.614;1.456;2023-03-08T12:00:42;27.60;1.00
15656;DHT22;7928;43.614;1.456;2023-03-08T12:03:13;28.30;1.00
15656;DHT22;7928;43.614;1.456;2023-03-08T12:05:47;28.20;1.00
15656;DHT22;7928;43.614;1.456;2023-03-08T12:08:19;28.00;99.90
15656;DHT22;7928;43.614;1.456;2023-03-08T12:10:50;27.50;99.90
15656;DHT22;7928;43.614;1.456;2023-03-08T12:13:24;26.60;1.00
15656;DHT22;7928;43.614;1.456;2023-03-08T12:15:56;26.90;1.00
15656;DHT22;7928;43.614;1.456;2023-03-08T12:18:39;27.00;1.00
15656;DHT22;7928;43.614;1.456;2023-03-08T12:21:23;26.90;1.00
15656;DHT22;7928;43.614;1.456;2023-03-08T12:23:58;27.50;1.00
15656;DHT22;7928;43.614;1.456;2023-03-08T12:26:28;27.00;99.90
15656;DHT22;7928;43.614;1.456;2023-03-08T12:29:01;25.90;1.00
15656;DHT22;7928;43.614;1.456;2023-03-08T12:31:30;25.10;1.00
15656;DHT22;7928;43.614;1.456;2023-03-08T12:33:59;24.20;1.00
15656;DHT22;7928;43.614;1.456;2023-03-08T12:36:39;23.40;99.90
15656;DHT22;7928;43.614;1.456;2023-03-08T12:39:09;23.60;1.00
15656;DHT22;7928;43.614;1.456;2023-03-08T12:41:59;23.50;99.90
15656;DHT22;7928;43.614;1.456;2023-03-08T12:44:28;23.50;1.00
15656;DHT22;7928;43.614;1.456;2023-03-08T12:46:57;23.80;1.00
15656;DHT22;7928;43.614;1.456;2023-03-08T12:49:27;23.60;1.00
15656;DHT22;7928;43.614;1.456;2023-03-08T12:52:00;23.70;1.00
15656;DHT22;7928;43.614;1.456;2023-03-08T12:54:30;23.50;1.00
15656;DHT22;7928;43.614;1.456;2023-03-08T12:56:59;23.20;99.90
15656;DHT22;7928;43.614;1.456;2023-03-08T12:59:34;24.20;1.00
15656;DHT22;7928;43.614;1.456;2023-03-08T13:02:26;24.70;99.90
15656;DHT22;7928;43.614;1.456;2023-03-08T13:05:18;25.10;1.00
15656;DHT22;7928;43.614;1.456;2023-03-08T13:08:00;25.70;99.90
15656;DHT22;7928;43.614;1.456;2023-03-08T13:10:39;24.90;1.00
15656;DHT22;7928;43.614;1.456;2023-03-08T13:13:21;24.80;1.00
15656;DHT22;7928;43.614;1.456;2023-03-08T13:15:49;24.90;1.00
15656;DHT22;7928;43.614;1.456;2023-03-08T13:18:18;24.30;91.30
15656;DHT22;7928;43.614;1.456;2023-03-08T13:21:06;24.20;1.00
15656;DHT22;7928;43.614;1.456;2023-03-08T13:23:47;24.80;1.00
15656;DHT22;7928;43.614;1.456;2023-03-08T13:26:36;25.50;1.00
15656;DHT22;7928;43.614;1.456;2023-03-08T13:29:12;25.70;99.90
15656;DHT22;7928;43.614;1.456;2023-03-08T13:31:40;25.20;97.60
15656;DHT22;7928;43.614;1.456;2023-03-08T13:34:23;25.10;1.00
15656;DHT22;7928;43.614;1.456;2023-03-08T13:36:50;25.10;99.90
15656;DHT22;7928;43.614;1.456;2023-03-08T13:39:20;24.80;99.90
15656;DHT22;7928;43.614;1.456;2023-03-08T13:41:48;24.30;1.00
15656;DHT22;7928;43.614;1.456;2023-03-08T13:44:16;24.30;99.90
15656;DHT22;7928;43.614;1.456;2023-03-08T13:46:45;24.20;99.90
15656;DHT22;7928;43.614;1.456;2023-03-08T13:49:16;24.10;49.90
15656;DHT22;7928;43.614;1.456;2023-03-08T13:51:47;23.60;68.60
15656;DHT22;7928;43.614;1.456;2023-03-08T13:54:17;23.50;99.90
15656;DHT22;7928;43.614;1.456;2023-03-08T13:56:53;23.10;1.00
15656;DHT22;7928;43.614;1.456;2023-03-08T13:59:20;22.90;1.00
15656;DHT22;7928;43.614;1.456;2023-03-08T14:01:48;22.60;1.00
15656;DHT22;7928;43.614;1.456;2023-03-08T14:04:18;22.50;1.00
15656;DHT22;7928;43.614;1.456;2023-03-08T14:06:50;22.40;1.00
15656;DHT22;7928;43.614;1.456;2023-03-08T14:09:18;22.30;1.00
15656;DHT22;7928;43.614;1.456;2023-03-08T14:11:54;22.20;1.00
15656;DHT22;7928;43.614;1.456;2023-03-08T14:14:26;22.10;1.00
15656;DHT22;7928;43.614;1.456;2023-03-08T14:16:54;22.00;1.00
15656;DHT22;7928;43.614;1.456;2023-03-08T14:19:23;21.90;95.70
15656;DHT22;7928;43.614;1.456;2023-03-08T14:21:52;21.60;1.00
15656;DHT22;7928;43.614;1.456;2023-03-08T14:24:23;21.50;1.00
15656;DHT22;7928;43.614;1.456;2023-03-08T14:26:57;21.50;1.00
15656;DHT22;7928;43.614;1.456;2023-03-08T14:29:26;21.80;1.00
15656;DHT22;7928;43.614;1.456;2023-03-08T14:32:00;21.90;1.00
15656;DHT22;7928;43.614;1.456;2023-03-08T14:34:30;21.80;1.00
15656;DHT22;7928;43.614;1.456;2023-03-08T14:37:03;21.60;1.00
15656;DHT22;7928;43.614;1.456;2023-03-08T14:39:32;21.80;1.00
15656;DHT22;7928;43.614;1.456;2023-03-08T14:42:10;22.30;99.90
15656;DHT22;7928;43.614;1.456;2023-03-08T14:44:41;22.80;99.90
15656;DHT22;7928;43.614;1.456;2023-03-08T14:47:09;23.10;12.20
15656;DHT22;7928;43.614;1.456;2023-03-08T14:49:36;23.60;1.00
15656;DHT22;7928;43.614;1.456;2023-03-08T14:52:04;23.80;99.90
15656;DHT22;7928;43.614;1.456;2023-03-08T14:54:33;23.40;99.90
15656;DHT22;7928;43.614;1.456;2023-03-08T14:57:15;22.90;99.90
15656;DHT22;7928;43.614;1.456;2023-03-08T14:59:42;22.30;99.90
15656;DHT22;7928;43.614;1.456;2023-03-08T15:02:10;21.70;1.00
15656;DHT22;7928;43.614;1.456;2023-03-08T15:04:38;21.40;1.00
15656;DHT22;7928;43.614;1.456;2023-03-08T15:07:06;21.30;1.00
15656;DHT22;7928;43.614;1.456;2023-03-08T15:09:33;21.10;1.00
15656;DHT22;7928;43.614;1.456;2023-03-08T15:12:01;21.00;1.00
15656;DHT22;7928;43.614;1.456;2023-03-08T15:14:29;20.90;1.00
15656;DHT22;7928;43.614;1.456;2023-03-08T15:16:56;20.80;1.00
15656;DHT22;7928;43.614;1.456;2023-03-08T15:19:23;20.70;1.00
15656;DHT22;7928;43.614;1.456;2023-03-08T15:21:50;20.70;1.00
15656;DHT22;7928;43.614;1.456;2023-03-08T15:24:17;20.60;1.00
15656;DHT22;7928;43.614;1.456;2023-03-08T15:26:45;20.60;1.00
15656;DHT22;7928;43.614;1.456;2023-03-08T15:29:23;20.70;1.00
15656;DHT22;7928;43.614;1.456;2023-03-08T15:31:52;20.60;1.00
15656;DHT22;7928;43.614;1.456;2023-03-08T15:34:20;20.60;1.00
15656;DHT22;7928;43.614;1.456;2023-03-08T15:36:48;20.50;1.00
15656;DHT22;7928;43.614;1.456;2023-03-08T15:39:15;20.40;1.00
15656;DHT22;7928;43.614;1.456;2023-03-08T15:41:42;20.30;1.00
15656;DHT22;7928;43.614;1.456;2023-03-08T15:44:09;20.30;1.00
15656;DHT22;7928;43.614;1.456;2023-03-08T15:46:36;20.30;1.00
15656;DHT22;7928;43.614;1.456;2023-03-08T15:49:05;20.30;1.00
15656;DHT22;7928;43.614;1.456;2023-03-08T15:51:34;20.20;1.00
15656;DHT22;7928;43.614;1.456;2023-03-08T15:54:03;20.20;1.00
15656;DHT22;7928;43.614;1.456;2023-03-08T15:56:30;20.20;1.00
15656;DHT22;7928;43.614;1.456;2023-03-08T15:58:57;20.30;1.00
15656;DHT22;7928;43.614;1.456;2023-03-08T16:01:26;20.20;1.00
15656;DHT22;7928;43.614;1.456;2023-03-08T16:03:54;20.10;1.00
15656;DHT22;7928;43.614;1.456;2023-03-08T16:06:23;20.00;1.00
15656;DHT22;7928;43.614;1.456;2023-03-08T16:08:50;20.00;1.00
15656;DHT22;7928;43.614;1.456;2023-03-08T16:11:18;19.80;1.00
15656;DHT22;7928;43.614;1.456;2023-03-08T16:13:48;19.70;1.00
15656;DHT22;7928;43.614;1.456;2023-03-08T16:16:15;19.50;1.00
15656;DHT22;7928;43.614;1.456;2023-03-08T16:18:43;19.40;1.00
15656;DHT22;7928;43.614;1.456;2023-03-08T16:21:10;19.30;1.00
15656;DHT22;7928;43.614;1.456;2023-03-08T16:23:39;19.20;1.00
15656;DHT22;7928;43.614;1.456;2023-03-08T16:26:08;19.20;1.00